Time;durP1;ratioP1;P1;durP2;ratioP2;P2;SDS_P1;SDS_P2;PMS_P1;PMS_P2;Temp;Humidity;BMP_temperature;BMP_pressure;BME280_temperature;BME280_humidity;BME280_pressure;Samples;Min_cycle;Max_cycle;Signal;HPM_P1;HPM_P2
2022/11/24 00:01:28;;;;;;;20.30;12.82;;;;;;;6.07;100.00;100124.06;4905542;29;20517;-80
2022/11/24 00:04:00;;;;;;;26.33;12.15;;;;;;;6.08;100.00;100124.94;4905508;29;20045;-80
2022/11/24 00:06:31;;;;;;;19.65;12.30;;;;;;;6.07;100.00;100121.44;4893850;29;20052;-80
2022/11/24 00:09:00;;;;;;;23.90;13.75;;;;;;;6.09;100.00;100129.28;4913912;29;20067;-79
2022/11/24 00:11:30;;;;;;;20.58;12.77;;;;;;;6.09;100.00;100127.56;4884884;29;20418;-80
2022/11/24 00:14:01;;;;;;;24.20;12.52;;;;;;;6.10;100.00;100133.66;4904595;29;20104;-81
2022/11/24 00:16:32;;;;;;;25.73;13.23;;;;;;;6.08;100.00;100133.63;4931052;29;20056;-80
2022/11/24 00:19:02;;;;;;;21.67;12.00;;;;;;;6.07;100.00;100128.38;4910102;29;20453;-79
2022/11/24 00:21:31;;;;;;;25.27;13.73;;;;;;;6.04;100.00;100145.81;4902378;29;20044;-80
2022/11/24 00:24:00;;;;;;;26.40;12.35;;;;;;;6.04;100.00;100135.34;4895064;29;20413;-80
2022/11/24 00:26:36;;;;;;;21.92;12.02;;;;;;;6.04;100.00;100135.34;4869296;29;20129;-79
2022/11/24 00:29:06;;;;;;;18.58;11.85;;;;;;;6.03;100.00;100138.84;4905694;29;20039;-79
2022/11/24 00:31:39;;;;;;;22.88;11.82;;;;;;;6.02;100.00;100139.69;4912498;29;20063;-80
2022/11/24 00:34:13;;;;;;;24.33;12.05;;;;;;;6.00;100.00;100145.78;4910437;29;20062;-81
2022/11/24 00:36:41;;;;;;;23.58;12.43;;;;;;;5.99;100.00;100136.16;4883404;29;20040;-79
2022/11/24 00:39:12;;;;;;;19.17;11.48;;;;;;;5.95;100.00;100135.25;4902410;29;20048;-80
2022/11/24 00:41:41;;;;;;;;;;;;;;;5.93;100.00;100147.41;4880442;29;20044;-79
2022/11/24 00:44:09;;;;;;;21.27;11.38;;;;;;;5.91;100.00;100135.19;4895244;29;19935;-79
2022/11/24 00:46:37;;;;;;;19.08;11.10;;;;;;;5.89;100.00;100134.28;4902217;29;20553;-79
2022/11/24 00:49:06;;;;;;;21.80;10.85;;;;;;;5.86;100.00;100130.78;4905670;29;20106;-79
2022/11/24 00:51:35;;;;;;;25.90;12.18;;;;;;;5.84;100.00;100136.84;4886599;29;20071;-80
2022/11/24 00:54:05;;;;;;;21.33;10.13;;;;;;;5.82;100.00;100139.47;4900213;29;20430;-79
2022/11/24 00:56:33;;;;;;;24.60;10.68;;;;;;;5.81;100.00;100142.03;4895956;29;20537;-79
2022/11/24 00:59:02;;;;;;;22.75;11.15;;;;;;;5.81;100.00;100144.66;4863221;29;20910;-79
2022/11/24 01:01:31;;;;;;;31.42;13.48;;;;;;;5.79;100.00;100139.41;4905226;29;20063;-79
2022/11/24 01:04:00;;;;;;;25.50;11.25;;;;;;;5.79;100.00;100149.00;4905254;29;20049;-80
2022/11/24 01:06:31;;;;;;;24.13;11.95;;;;;;;5.78;100.00;100148.09;4910393;29;20052;-79
2022/11/24 01:08:59;;;;;;;36.38;11.82;;;;;;;5.77;100.00;100135.91;4898677;29;20058;-80
2022/11/24 01:14:23;;;;;;;24.60;11.20;;;;;;;5.76;100.00;100149.81;4883273;29;20730;-80
2022/11/24 01:16:52;;;;;;;22.38;11.30;;;;;;;5.76;100.00;100157.66;4898986;29;20055;-80
2022/11/24 01:19:21;;;;;;;27.67;11.65;;;;;;;5.76;100.00;100162.91;4910154;29;20055;-80
2022/11/24 01:21:49;;;;;;;23.83;11.80;;;;;;;5.76;100.00;100159.41;4908136;29;20083;-80
2022/11/24 01:24:18;;;;;;;22.77;10.32;;;;;;;5.76;100.00;100169.88;4886952;29;20417;-80
2022/11/24 01:26:46;;;;;;;24.95;10.77;;;;;;;5.76;100.00;100164.63;4906900;29;20052;-79
2022/11/24 01:29:14;;;;;;;31.45;10.70;;;;;;;5.77;100.00;100171.63;4875405;29;20051;-80
2022/11/24 01:31:43;;;;;;;21.48;10.13;;;;;;;5.76;100.00;100170.72;4897760;29;20838;-80
2022/11/24 01:34:12;;;;;;;27.63;10.98;;;;;;;5.76;100.00;100183.81;4888914;29;20501;-79
2022/11/24 01:36:40;;;;;;;30.23;11.32;;;;;;;5.75;100.00;100187.31;4903573;29;20060;-79
2022/11/24 01:39:09;;;;;;;22.25;10.13;;;;;;;5.74;100.00;100197.72;4907546;29;20060;-79
2022/11/24 01:41:38;;;;;;;25.58;9.90;;;;;;;5.74;100.00;100192.50;4906934;29;20370;-79
2022/11/24 01:44:24;;;;;;;24.88;10.25;;;;;;;5.72;100.00;100199.44;4905195;29;20056;-80
2022/11/24 01:47:13;;;;;;;24.20;9.18;;;;;;;5.71;100.00;100202.91;4867559;29;20145;-80
2022/11/24 01:49:54;;;;;;;23.80;9.65;;;;;;;5.70;100.00;100207.28;4899279;29;20048;-79
2022/11/24 01:52:41;;;;;;;24.23;9.07;;;;;;;5.70;100.00;100212.50;4903825;29;20048;-79
2022/11/24 01:55:28;;;;;;;19.23;8.95;;;;;;;5.69;100.00;100217.69;4899936;29;20583;-80
2022/11/24 01:58:00;;;;;;;23.20;7.97;;;;;;;5.67;100.00;100209.84;4901648;29;20043;-80
2022/11/24 02:00:29;;;;;;;31.90;9.20;;;;;;;5.67;100.00;100220.28;4876049;29;20406;-80
2022/11/24 02:02:58;;;;;;;23.85;8.38;;;;;;;5.68;100.00;100224.66;4910881;29;20049;-80
2022/11/24 02:05:44;;;;;;;25.42;9.80;;;;;;;5.66;100.00;100219.41;4874673;29;20877;-80
2022/11/24 02:08:24;;;;;;;26.45;8.55;;;;;;;5.65;100.00;100215.06;4903235;29;20056;-80
2022/11/24 02:10:53;;;;;;;31.65;8.52;;;;;;;5.65;100.00;100224.63;4892049;29;20319;-80
2022/11/24 02:13:23;;;;;;;28.48;8.00;;;;;;;5.64;100.00;100222.88;4905174;29;20048;-81
2022/11/24 02:15:53;;;;;;;30.23;9.32;;;;;;;5.63;100.00;100231.56;4875176;29;20060;-81
2022/11/24 02:18:21;;;;;;;23.80;7.68;;;;;;;5.63;100.00;100242.94;4904755;29;20045;-81
2022/11/24 02:20:50;;;;;;;25.20;7.22;;;;;;;5.62;100.00;100249.00;4896409;29;20047;-80
2022/11/24 02:23:41;;;;;;;25.45;7.03;;;;;;;5.62;100.00;100250.75;4907412;29;20059;-81
2022/11/24 02:26:28;;;;;;;;;;;;;;;5.63;100.00;100247.25;4896581;29;20063;-79
2022/11/24 02:28:56;;;;;;;26.50;6.82;;;;;;;5.66;100.00;100249.91;4905037;29;19930;-81
2022/11/24 02:31:25;;;;;;;28.95;7.13;;;;;;;5.68;100.00;100258.66;4923670;29;20061;-81
2022/11/24 02:33:54;;;;;;;24.48;6.82;;;;;;;5.70;100.00;100262.16;4872820;29;20378;-80
2022/11/24 02:36:22;;;;;;;28.20;6.88;;;;;;;5.72;100.00;100257.84;4878256;29;20048;-80
2022/11/24 02:38:51;;;;;;;28.38;7.55;;;;;;;5.75;100.00;100255.28;4896755;29;20059;-79
2022/11/24 02:41:22;;;;;;;33.55;7.40;;;;;;;5.79;100.00;100257.06;4895156;29;20059;-80
2022/11/24 02:43:57;;;;;;;27.40;7.13;;;;;;;5.82;100.00;100257.13;4893139;29;20048;-80
2022/11/24 02:46:25;;;;;;;19.92;6.57;;;;;;;5.85;100.00;100258.88;4919410;29;20804;-80
2022/11/24 02:48:54;;;;;;;31.98;7.63;;;;;;;5.86;100.00;100271.13;4878836;29;20505;-79
2022/11/24 02:51:22;;;;;;;28.38;6.65;;;;;;;5.88;100.00;100266.78;4873038;29;20067;-80
2022/11/24 02:53:50;;;;;;;29.13;7.05;;;;;;;5.91;100.00;100271.16;4904127;29;20059;-81
2022/11/24 02:56:19;;;;;;;26.13;6.50;;;;;;;5.92;100.00;100268.56;4903879;29;20059;-79
2022/11/24 02:58:47;;;;;;;28.52;7.45;;;;;;;5.95;100.00;100273.84;4896111;29;20064;-80
2022/11/24 03:01:15;;;;;;;20.85;6.43;;;;;;;5.97;100.00;100266.03;4907140;29;20052;-79
2022/11/24 03:03:44;;;;;;;33.33;7.70;;;;;;;5.99;100.00;100267.84;4879185;29;20052;-79
2022/11/24 03:06:14;;;;;;;21.20;5.43;;;;;;;6.00;100.00;100263.47;4894514;29;20060;-79
2022/11/24 03:08:42;;;;;;;27.35;6.00;;;;;;;5.99;100.00;100267.84;4892799;29;20059;-80
2022/11/24 03:11:11;;;;;;;19.45;5.38;;;;;;;5.98;100.00;100268.69;4911609;29;20067;-79
2022/11/24 03:13:39;;;;;;;31.05;6.97;;;;;;;5.95;100.00;100271.25;4901955;29;20063;-79
2022/11/24 03:16:09;;;;;;;21.33;5.95;;;;;;;5.92;100.00;100270.31;4911440;29;20078;-80
2022/11/24 03:18:37;;;;;;;28.70;6.70;;;;;;;5.90;100.00;100287.69;4882826;29;20044;-80
2022/11/24 03:21:06;;;;;;;25.10;5.88;;;;;;;5.86;100.00;100286.81;4912167;29;20625;-80
2022/11/24 03:23:34;;;;;;;19.98;5.60;;;;;;;5.84;100.00;100288.50;4901354;29;20051;-80
2022/11/24 03:26:10;;;;;;;22.95;6.28;;;;;;;5.81;100.00;100286.72;4914701;29;20036;-79
2022/11/24 03:28:38;;;;;;;26.30;5.60;;;;;;;5.79;100.00;100288.44;4902344;29;20048;-80
2022/11/24 03:31:08;;;;;;;26.38;5.68;;;;;;;5.78;100.00;100291.91;4898634;29;20048;-80
2022/11/24 03:33:37;;;;;;;30.17;6.13;;;;;;;5.76;100.00;100293.63;4879151;29;20431;-79
2022/11/24 03:36:07;;;;;;;22.02;6.03;;;;;;;5.77;100.00;100307.59;4906075;29;20402;-80
2022/11/24 03:38:35;;;;;;;26.15;6.15;;;;;;;5.78;100.00;100309.34;4880997;29;20052;-81
2022/11/24 03:41:04;;;;;;;25.80;6.22;;;;;;;5.78;100.00;100307.59;4908600;29;20048;-80
2022/11/24 03:43:32;;;;;;;22.27;5.53;;;;;;;5.80;100.00;100307.63;4908639;29;20049;-79
2022/11/24 03:46:06;;;;;;;18.50;5.93;;;;;;;5.82;100.00;100305.91;4889408;29;20497;-80
2022/11/24 03:48:35;;;;;;;22.33;5.38;;;;;;;5.83;100.00;100303.31;4905758;29;20056;-80
2022/11/24 03:51:03;;;;;;;25.20;6.22;;;;;;;5.86;100.00;100311.22;4885793;29;20055;-80
2022/11/24 03:53:33;;;;;;;17.05;4.68;;;;;;;5.89;100.00;100319.94;4895573;29;20465;-80
2022/11/24 03:56:01;;;;;;;32.95;7.00;;;;;;;5.92;100.00;100325.22;4905731;29;20036;-81
2022/11/24 03:58:30;;;;;;;22.38;5.40;;;;;;;5.92;100.00;100333.94;4906656;29;20041;-80
2022/11/24 04:00:59;;;;;;;21.13;4.88;;;;;;;5.93;100.00;100324.34;4898191;29;20059;-80
2022/11/24 04:03:27;;;;;;;21.10;5.75;;;;;;;5.93;100.00;100320.00;4891625;29;20052;-80
2022/11/24 04:05:55;;;;;;;21.40;5.25;;;;;;;5.95;100.00;100328.78;4868119;29;20397;-80
2022/11/24 04:08:24;;;;;;;15.48;4.65;;;;;;;5.96;100.00;100329.69;4898435;29;20048;-80
2022/11/24 04:10:53;;;;;;;18.83;5.03;;;;;;;5.96;100.00;100330.53;4922585;29;20049;-79
2022/11/24 04:13:24;;;;;;;23.27;5.40;;;;;;;5.98;100.00;100343.66;4908509;29;20048;-80
2022/11/24 04:15:53;;;;;;;28.88;7.75;;;;;;;5.98;100.00;100343.66;4915041;29;20529;-80
2022/11/24 04:18:21;;;;;;;30.95;5.90;;;;;;;5.99;100.00;100342.78;4908648;29;20055;-80
2022/11/24 04:20:51;;;;;;;17.73;4.93;;;;;;;6.00;100.00;100337.56;4883472;29;20063;-80
2022/11/24 04:23:19;;;;;;;27.15;7.05;;;;;;;6.01;100.00;100344.56;4901377;29;20080;-79
2022/11/24 04:25:47;;;;;;;20.35;4.97;;;;;;;6.02;100.00;100345.44;4908121;29;20052;-80
2022/11/24 04:28:16;;;;;;;21.10;5.03;;;;;;;6.02;100.00;100356.78;4900840;29;20060;-79
2022/11/24 04:30:44;;;;;;;25.63;5.05;;;;;;;6.04;100.00;100364.66;4881632;29;20048;-80
2022/11/24 04:33:12;;;;;;;29.88;5.68;;;;;;;6.03;100.00;100361.16;4892918;29;20067;-79
2022/11/24 04:35:41;;;;;;;20.70;5.00;;;;;;;6.03;100.00;100365.50;4877652;29;20449;-81
2022/11/24 04:38:09;;;;;;;17.70;4.90;;;;;;;6.02;100.00;100363.75;4904929;29;20036;-80
2022/11/24 04:40:37;;;;;;;27.98;5.80;;;;;;;6.00;100.00;100374.19;4901550;29;20709;-80
2022/11/24 04:43:06;;;;;;;19.85;4.97;;;;;;;6.00;100.00;100386.41;4911185;29;20044;-79
2022/11/24 04:45:34;;;;;;;26.23;4.93;;;;;;;5.99;100.00;100382.91;4901868;29;20552;-80
2022/11/24 04:48:03;;;;;;;18.55;4.63;;;;;;;6.00;100.00;100387.25;4883025;29;20071;-80
2022/11/24 04:50:31;;;;;;;25.38;4.78;;;;;;;5.99;100.00;100388.13;4874419;29;20056;-80
2022/11/24 04:53:00;;;;;;;23.85;5.95;;;;;;;6.00;100.00;100389.00;4908427;29;20055;-79
2022/11/24 04:55:28;;;;;;;24.48;5.30;;;;;;;6.00;100.00;100384.66;4897098;29;20040;-80
2022/11/24 04:57:57;;;;;;;23.13;4.93;;;;;;;6.01;100.00;100388.13;4893947;29;20037;-79
2022/11/24 05:00:25;;;;;;;24.67;5.30;;;;;;;6.00;100.00;100394.25;4906217;29;20048;-80
2022/11/24 05:02:54;;;;;;;27.55;5.72;;;;;;;5.99;100.00;100388.13;4876593;29;20052;-80
2022/11/24 05:05:22;;;;;;;27.60;5.43;;;;;;;5.95;100.00;100388.94;4874791;29;20041;-79
2022/11/24 05:07:50;;;;;;;24.98;5.53;;;;;;;5.92;100.00;100391.47;4879589;29;20047;-80
2022/11/24 05:10:34;;;;;;;33.92;7.47;;;;;;;5.91;100.00;100389.72;4882382;29;20052;-79
2022/11/24 05:13:09;;;;;;;11.90;3.65;;;;;;;5.85;100.00;100395.72;4901763;29;20500;-79
2022/11/24 05:15:39;;;;;;;24.95;5.30;;;;;;;5.83;100.00;100399.19;4904452;29;20059;-79
2022/11/24 05:18:11;;;;;;;24.00;5.18;;;;;;;5.78;100.00;100399.09;4900254;29;20051;-79
2022/11/24 05:20:40;;;;;;;21.30;5.00;;;;;;;5.75;100.00;100401.69;4919990;29;20383;-80
2022/11/24 05:23:08;;;;;;;19.85;4.72;;;;;;;5.72;100.00;100409.47;4857158;29;20040;-80
2022/11/24 05:25:36;;;;;;;16.05;4.97;;;;;;;5.69;100.00;100412.06;4909095;29;20063;-80
2022/11/24 05:28:10;;;;;;;28.80;5.47;;;;;;;5.65;100.00;100415.44;4894408;29;20078;-78
2022/11/24 05:30:39;;;;;;;30.05;4.85;;;;;;;5.62;100.00;100412.81;4903382;29;20067;-79
2022/11/24 05:33:16;;;;;;;20.13;4.45;;;;;;;5.58;100.00;100421.47;4886131;29;20048;-80
2022/11/24 05:35:47;;;;;;;23.42;4.18;;;;;;;5.53;100.00;100431.81;4898203;29;20059;-80
2022/11/24 05:38:17;;;;;;;16.85;4.63;;;;;;;5.50;100.00;100425.66;4875601;29;20044;-79
2022/11/24 05:40:45;;;;;;;24.80;5.57;;;;;;;5.46;100.00;100435.16;4888142;29;20041;-79
2022/11/24 05:43:15;;;;;;;26.50;5.45;;;;;;;5.43;100.00;100442.97;4893533;29;20502;-80
2022/11/24 05:45:44;;;;;;;19.40;4.30;;;;;;;5.39;100.00;100439.44;4910808;29;20059;-80
2022/11/24 05:48:14;;;;;;;20.02;4.63;;;;;;;5.35;100.00;100444.56;4908023;29;20044;-79
2022/11/24 05:50:43;;;;;;;;;;;;;;;5.30;100.00;100443.63;4910920;29;20048;-80
2022/11/24 05:53:12;;;;;;;15.50;3.75;;;;;;;5.27;100.00;100452.25;4895822;29;19927;-79
2022/11/24 05:55:41;;;;;;;18.30;4.13;;;;;;;5.24;100.00;100454.84;4904989;29;20055;-80
2022/11/24 05:58:10;;;;;;;13.60;3.47;;;;;;;5.20;100.00;100458.25;4899640;29;20055;-79
2022/11/24 06:00:38;;;;;;;21.33;4.47;;;;;;;5.17;100.00;100455.56;4883477;29;20049;-79
2022/11/24 06:03:09;;;;;;;26.98;5.53;;;;;;;5.12;100.00;100463.28;4891715;29;20044;-80
2022/11/24 06:05:37;;;;;;;20.65;3.63;;;;;;;5.10;100.00;100464.13;4894407;29;20063;-80
2022/11/24 06:08:06;;;;;;;22.83;4.75;;;;;;;5.07;100.00;100473.66;4888701;29;20052;-80
2022/11/24 06:10:34;;;;;;;19.83;4.07;;;;;;;5.06;100.00;100474.50;4893997;29;20067;-81
2022/11/24 06:13:05;;;;;;;22.10;4.55;;;;;;;5.04;100.00;100485.78;4908776;29;20052;-79
2022/11/24 06:15:33;;;;;;;;;;;;;;;4.97;100.00;100500.47;4889260;29;20056;-80
2022/11/24 06:18:02;;;;;;;18.33;4.10;;;;;;;4.96;100.00;100493.47;4903086;29;19930;-80
2022/11/24 06:20:32;;;;;;;14.73;3.63;;;;;;;4.92;100.00;100504.69;4901628;29;20059;-80
2022/11/24 06:23:01;;;;;;;18.83;4.00;;;;;;;4.88;100.00;100498.53;4890750;29;20048;-78
2022/11/24 06:25:29;;;;;;;19.60;4.47;;;;;;;4.87;100.00;100508.94;4877563;29;20648;-81
2022/11/24 06:28:02;;;;;;;17.30;4.05;;;;;;;4.86;100.00;100502.84;4909223;29;20040;-79
2022/11/24 06:30:31;;;;;;;17.17;3.63;;;;;;;4.86;100.00;100507.19;4903749;29;20048;-79
2022/11/24 06:32:59;;;;;;;21.50;4.30;;;;;;;4.86;100.00;100528.06;4901872;29;20049;-79
2022/11/24 06:35:27;;;;;;;20.98;4.22;;;;;;;4.84;100.00;100517.59;4886405;29;20052;-80
2022/11/24 06:37:56;;;;;;;19.45;3.85;;;;;;;4.82;100.00;100527.13;4886806;29;20525;-78
2022/11/24 06:40:24;;;;;;;18.20;4.53;;;;;;;4.81;100.00;100527.97;4865530;29;20049;-79
2022/11/24 06:42:52;;;;;;;17.77;4.70;;;;;;;4.78;100.00;100534.84;4909186;29;20056;-79
2022/11/24 06:45:22;;;;;;;18.80;4.30;;;;;;;4.77;100.00;100543.53;4923034;29;20052;-79
2022/11/24 06:47:54;;;;;;;18.73;4.00;;;;;;;4.74;100.00;100556.50;4910989;29;20044;-80
2022/11/24 06:50:23;;;;;;;14.00;3.92;;;;;;;4.71;100.00;100554.72;4906782;29;20048;-78
2022/11/24 06:52:57;;;;;;;22.20;5.00;;;;;;;4.68;100.00;100559.88;4900147;29;20055;-80
2022/11/24 06:55:26;;;;;;;22.25;3.85;;;;;;;4.65;100.00;100565.91;4858246;29;20037;-79
2022/11/24 06:57:55;;;;;;;16.95;4.10;;;;;;;4.65;100.00;100567.63;4909860;29;20041;-81
2022/11/24 07:00:23;;;;;;;16.77;3.45;;;;;;;4.62;100.00;100576.28;4896745;29;20047;-81
2022/11/24 07:02:51;;;;;;;19.60;4.50;;;;;;;4.61;100.00;100568.41;4906089;29;20052;-81
2022/11/24 07:05:20;;;;;;;20.08;3.92;;;;;;;4.60;100.00;100577.09;4906750;29;20267;-80
2022/11/24 07:07:49;;;;;;;15.85;3.83;;;;;;;4.58;100.00;100584.88;4906732;29;20048;-81
2022/11/24 07:10:18;;;;;;;18.15;4.47;;;;;;;4.60;100.00;100585.78;4883115;29;20052;-81
2022/11/24 07:12:46;;;;;;;19.45;4.18;;;;;;;4.61;100.00;100592.78;4906365;29;20508;-81
2022/11/24 07:15:15;;;;;;;14.40;4.18;;;;;;;4.63;100.00;100595.41;4906229;29;20044;-81
2022/11/24 07:17:43;;;;;;;19.65;3.50;;;;;;;4.66;100.00;100603.31;4887850;29;20094;-80
2022/11/24 07:20:11;;;;;;;33.30;5.15;;;;;;;4.69;100.00;100606.03;4889688;29;21111;-80
2022/11/24 07:22:40;;;;;;;21.17;4.10;;;;;;;4.72;100.00;100606.06;4903584;29;20048;-81
2022/11/24 07:25:09;;;;;;;13.90;3.17;;;;;;;4.74;100.00;100611.34;4898469;29;20060;-78
2022/11/24 07:27:37;;;;;;;19.27;3.97;;;;;;;4.76;100.00;100607.03;4878729;29;20040;-80
2022/11/24 07:30:07;;;;;;;13.88;4.03;;;;;;;4.78;100.00;100613.16;4907661;29;20496;-80
2022/11/24 07:32:35;;;;;;;19.05;3.63;;;;;;;4.78;100.00;100621.00;4894165;29;20063;-80
2022/11/24 07:35:04;;;;;;;22.65;3.95;;;;;;;4.76;100.00;100617.47;4909929;29;20059;-81
2022/11/24 07:37:32;;;;;;;22.40;5.78;;;;;;;4.74;100.00;100621.78;4900723;29;20545;-81
2022/11/24 07:40:01;;;;;;;22.55;4.32;;;;;;;4.75;100.00;100629.66;4880608;29;20053;-82
2022/11/24 07:42:29;;;;;;;21.33;4.07;;;;;;;4.74;100.00;100632.22;4881668;29;20059;-83
2022/11/24 07:44:57;;;;;;;20.48;3.85;;;;;;;4.76;100.00;100635.75;4895029;29;20041;-81
2022/11/24 07:47:28;;;;;;;19.65;4.28;;;;;;;4.77;100.00;100645.34;4905208;29;20043;-81
2022/11/24 07:49:56;;;;;;;25.48;4.78;;;;;;;4.80;100.00;100642.78;4894260;29;20501;-83
2022/11/24 07:52:25;;;;;;;22.38;5.53;;;;;;;4.81;100.00;100645.44;4902978;29;20863;-83
2022/11/24 07:54:53;;;;;;;25.77;4.40;;;;;;;4.84;100.00;100657.72;4888457;29;20052;-83
2022/11/24 07:57:22;;;;;;;19.88;4.53;;;;;;;4.86;100.00;100649.06;4861503;29;20669;-79
2022/11/24 07:59:50;;;;;;;28.05;4.32;;;;;;;4.89;100.00;100659.53;4901788;29;20059;-78
2022/11/24 08:02:19;;;;;;;19.13;4.35;;;;;;;4.91;100.00;100656.97;4897097;29;20048;-79
2022/11/24 08:04:47;;;;;;;19.55;3.90;;;;;;;4.95;100.00;100657.94;4911081;29;20045;-79
2022/11/24 08:07:16;;;;;;;13.95;3.45;;;;;;;5.01;100.00;100671.13;4892112;29;20044;-81
2022/11/24 08:09:49;;;;;;;22.75;4.82;;;;;;;5.04;100.00;100671.22;4876436;29;20052;-79
2022/11/24 08:12:21;;;;;;;27.50;4.80;;;;;;;5.08;100.00;100671.34;4875733;29;20063;-79
2022/11/24 08:14:50;;;;;;;22.45;4.75;;;;;;;5.12;100.00;100671.38;4895488;29;20514;-79
2022/11/24 08:17:18;;;;;;;20.63;4.43;;;;;;;5.16;100.00;100670.59;4893051;29;20554;-79
2022/11/24 08:19:47;;;;;;;20.50;5.13;;;;;;;5.20;100.00;100678.56;4896445;29;20047;-79
2022/11/24 08:22:15;;;;;;;20.67;4.85;;;;;;;5.26;100.00;100685.66;4906375;29;20070;-80
2022/11/24 08:24:46;;;;;;;31.48;5.85;;;;;;;5.31;100.00;100684.00;4885679;29;20057;-79
2022/11/24 08:27:15;;;;;;;28.65;5.30;;;;;;;5.35;100.00;100688.47;4861983;29;20601;-78
2022/11/24 08:29:44;;;;;;;33.58;5.57;;;;;;;5.39;100.00;100690.28;4913306;29;20044;-79
2022/11/24 08:32:12;;;;;;;18.27;3.80;;;;;;;5.45;100.00;100693.03;4918177;29;20064;-78
2022/11/24 08:34:49;;;;;;;28.38;5.13;;;;;;;5.51;100.00;100688.78;4885344;29;20100;-79
2022/11/24 08:37:17;;;;;;;25.15;5.38;;;;;;;5.57;100.00;100694.13;4900947;29;20536;-79
2022/11/24 08:39:46;;;;;;;23.10;4.47;;;;;;;5.64;100.00;100693.41;4895424;29;20067;-80
2022/11/24 08:42:14;;;;;;;21.55;4.85;;;;;;;5.69;100.00;100690.88;4859724;29;20067;-79
2022/11/24 08:44:43;;;;;;;19.58;4.10;;;;;;;5.78;100.00;100696.31;4904970;29;20052;-79
2022/11/24 08:47:12;;;;;;;19.48;5.07;;;;;;;5.86;100.00;100693.00;4895569;29;20040;-79
2022/11/24 08:49:40;;;;;;;16.65;4.65;;;;;;;5.95;100.00;100704.50;4901612;29;20070;-79
2022/11/24 08:52:08;;;;;;;18.92;4.85;;;;;;;6.04;100.00;100699.47;4897963;29;20138;-80
2022/11/24 08:54:37;;;;;;;17.45;4.65;;;;;;;6.13;100.00;100701.41;4888195;29;20410;-80
2022/11/24 08:57:05;;;;;;;18.55;5.18;;;;;;;6.21;100.00;100708.53;4890452;29;20528;-79
2022/11/24 08:59:34;;;;;;;17.52;5.15;;;;;;;6.28;100.00;100708.66;4862391;29;20506;-80
2022/11/24 09:02:03;;;;;;;17.67;5.30;;;;;;;6.35;100.00;100720.97;4894070;29;20383;-79
2022/11/24 09:04:31;;;;;;;16.83;5.40;;;;;;;6.41;100.00;100721.97;4886953;29;20635;-79
2022/11/24 09:07:00;;;;;;;13.68;4.57;;;;;;;6.49;100.00;100719.50;4883744;29;20044;-79
2022/11/24 09:09:29;;;;;;;14.73;4.68;;;;;;;6.54;100.00;100715.25;4917434;29;20055;-79
2022/11/24 09:11:57;;;;;;;23.30;5.45;;;;;;;6.59;100.00;100723.16;4872749;29;20051;-79
2022/11/24 09:14:25;;;;;;;15.70;4.78;;;;;;;6.63;100.00;100718.03;4854253;29;20060;-79
2022/11/24 09:16:54;;;;;;;12.13;4.97;;;;;;;6.67;100.00;100724.16;4887137;29;20048;-79
2022/11/24 09:19:22;;;;;;;17.13;5.72;;;;;;;6.72;100.00;100726.88;4896968;29;20066;-80
2022/11/24 09:21:50;;;;;;;20.65;4.82;;;;;;;6.74;100.00;100725.16;4916045;29;20052;-79
2022/11/24 09:24:19;;;;;;;14.52;4.93;;;;;;;6.78;100.00;100726.97;4904794;29;20453;-80
2022/11/24 09:26:47;;;;;;;21.23;6.05;;;;;;;6.81;100.00;100732.28;4912479;29;20036;-80
2022/11/24 09:29:16;;;;;;;16.90;5.50;;;;;;;6.86;100.00;100735.81;4851708;29;20049;-80
2022/11/24 09:31:44;;;;;;;21.17;5.40;;;;;;;6.90;100.00;100736.75;4905501;29;20042;-79
2022/11/24 09:34:14;;;;;;;16.05;5.97;;;;;;;6.93;100.00;100745.56;4891866;29;20052;-80
2022/11/24 09:36:42;;;;;;;12.18;5.47;;;;;;;6.96;100.00;100750.00;4896725;29;20040;-79
2022/11/24 09:39:11;;;;;;;20.90;6.35;;;;;;;6.96;100.00;100750.84;4901153;29;20048;-80
2022/11/24 09:42:03;;;;;;;18.50;6.22;;;;;;;6.96;100.00;100758.72;4875575;29;20055;-80
2022/11/24 09:44:40;;;;;;;21.35;6.00;;;;;;;6.97;100.00;100765.69;4890315;29;20060;-80
2022/11/24 09:47:42;;;;;;;15.57;5.60;;;;;;;6.98;100.00;100759.63;4853955;29;20049;-79
2022/11/24 09:50:19;;;;;;;20.85;5.13;;;;;;;6.97;100.00;100757.84;4903426;29;20831;-80
2022/11/24 09:53:02;;;;;;;14.55;4.97;;;;;;;6.96;100.00;100766.56;4894451;29;20063;-79
2022/11/24 09:55:37;;;;;;;13.52;4.88;;;;;;;6.96;100.00;100763.97;4894901;29;20048;-80
2022/11/24 09:58:13;;;;;;;18.73;4.70;;;;;;;7.00;100.00;100778.00;4884155;29;20415;-80
2022/11/24 10:00:41;;;;;;;18.80;6.05;;;;;;;7.02;100.00;100777.16;4885591;29;20528;-78
2022/11/24 10:03:19;;;;;;;22.58;6.28;;;;;;;7.05;100.00;100778.06;4862557;29;20417;-79
2022/11/24 10:05:50;;;;;;;16.52;5.28;;;;;;;7.07;100.00;100781.56;4894154;29;20044;-78
2022/11/24 10:08:39;;;;;;;13.77;3.72;;;;;;;7.13;100.00;100781.69;4891264;29;20049;-79
2022/11/24 10:11:13;;;;;;;15.93;5.32;;;;;;;7.18;100.00;100780.00;4892304;29;20055;-79
2022/11/24 10:13:59;;;;;;;16.23;5.30;;;;;;;7.25;100.00;100796.72;4883839;29;20046;-80
2022/11/24 10:16:43;;;;;;;9.68;4.05;;;;;;;7.32;100.00;100803.84;4856217;29;20521;-79
2022/11/24 10:19:23;;;;;;;15.45;4.45;;;;;;;7.40;100.00;100791.72;4883576;29;20060;-79
2022/11/24 10:22:29;;;;;;;15.88;4.28;;;;;;;7.48;100.00;100791.84;4893023;29;20055;-79
2022/11/24 10:25:32;;;;;;;10.23;4.47;;;;;;;7.55;100.00;100804.19;4890884;29;20048;-79
2022/11/24 10:28:03;;;;;;;11.35;4.25;;;;;;;7.67;100.00;100816.59;4851515;29;20062;-78
2022/11/24 10:30:31;;;;;;;11.80;3.60;;;;;;;7.73;100.00;100822.81;4880624;29;20044;-79
2022/11/24 10:33:07;;;;;;;16.77;3.80;;;;;;;7.81;100.00;100818.56;4859607;29;20056;-78
2022/11/24 10:35:57;;;;;;;9.27;3.65;;;;;;;7.89;100.00;100817.78;4894779;29;20071;-78
2022/11/24 10:38:31;;;;;;;7.88;3.10;;;;;;;7.94;100.00;100806.50;4891417;29;20049;-79
2022/11/24 10:41:09;;;;;;;9.38;3.22;;;;;;;8.00;100.00;100810.94;4890982;29;20048;-78
2022/11/24 10:43:41;;;;;;;10.32;3.35;;;;;;;8.06;100.00;100815.38;4906973;29;20076;-86
2022/11/24 10:46:14;;;;;;;7.60;3.25;;;;;;;8.09;100.00;100818.94;4884626;29;20044;-81
2022/11/24 10:48:50;;;;;;;9.48;3.65;;;;;;;8.12;100.00;100825.97;4864490;29;20052;-81
2022/11/24 10:51:49;;;;;;;8.15;2.95;;;;;;;8.16;100.00;100836.50;4907864;29;20036;-82
2022/11/24 10:54:22;;;;;;;9.70;2.88;;;;;;;8.20;100.00;100840.06;4906423;29;20056;-82
2022/11/24 10:56:52;;;;;;;9.73;3.15;;;;;;;8.24;100.00;100836.63;4908793;29;20053;-81
2022/11/24 10:59:23;;;;;;;9.48;2.80;;;;;;;8.30;100.00;100836.69;4885122;29;20037;-82
2022/11/24 11:01:52;;;;;;;8.57;2.72;;;;;;;8.36;100.00;100846.41;4902235;29;20063;-81
2022/11/24 11:04:27;;;;;;;7.93;2.47;;;;;;;8.39;100.00;100849.03;4894095;29;20052;-82
2022/11/24 11:07:35;;;;;;;8.73;2.50;;;;;;;8.45;100.00;100851.78;4918961;29;20056;-81
2022/11/24 11:10:20;;;;;;;12.70;2.30;;;;;;;8.50;100.00;100850.06;4903383;29;20091;-80
2022/11/24 11:12:49;;;;;;;5.97;2.33;;;;;;;8.55;100.00;100852.78;4915531;29;20048;-81
2022/11/24 11:15:27;;;;;;;8.73;2.20;;;;;;;8.59;100.00;100858.06;4912000;29;20045;-81
2022/11/24 11:17:59;;;;;;;7.75;2.55;;;;;;;8.64;100.00;100862.50;4896410;29;20057;-81
2022/11/24 11:20:31;;;;;;;8.60;2.50;;;;;;;8.66;100.00;100868.63;4908174;29;20055;-82
2022/11/24 11:23:12;;;;;;;7.55;1.80;;;;;;;8.68;100.00;100864.31;4918429;29;20055;-81
2022/11/24 11:25:42;;;;;;;8.27;2.22;;;;;;;8.71;100.00;100864.31;4917043;29;20063;-81
2022/11/24 11:28:21;;;;;;;8.52;2.67;;;;;;;8.75;100.00;100864.41;4907760;29;20052;-81
2022/11/24 11:30:58;;;;;;;8.45;2.53;;;;;;;8.78;100.00;100867.03;4932711;29;20036;-81
2022/11/24 11:34:13;;;;;;;4.80;2.25;;;;;;;8.84;100.00;100868.84;4899590;29;20059;-82
2022/11/24 11:36:55;;;;;;;8.20;3.05;;;;;;;8.87;100.00;100870.66;4891673;29;21745;-80
2022/11/24 11:39:33;;;;;;;7.70;3.08;;;;;;;8.88;100.00;100870.63;4900884;29;20052;-83